createdAt,value
2023-05-12T00:02:05.159Z,11.00
2023-05-12T00:04:33.014Z,11.00
2023-05-12T00:07:00.918Z,11.00
2023-05-12T00:09:29.994Z,11.00
2023-05-12T00:11:58.562Z,11.00
2023-05-12T00:14:26.569Z,11.00
2023-05-12T00:16:55.028Z,11.00
2023-05-12T00:19:23.235Z,11.00
2023-05-12T00:21:51.136Z,10.90
2023-05-12T00:24:18.915Z,10.80
2023-05-12T00:26:46.716Z,10.76
2023-05-12T00:29:14.781Z,10.70
2023-05-12T00:31:42.597Z,10.60
2023-05-12T00:34:10.449Z,10.60
2023-05-12T00:36:39.438Z,10.60
2023-05-12T00:39:07.301Z,10.60
2023-05-12T00:41:36.839Z,10.60
2023-05-12T00:44:05.897Z,10.60
2023-05-12T00:46:34.084Z,10.60
2023-05-12T00:49:03.221Z,10.60
2023-05-12T00:51:32.793Z,10.60
2023-05-12T00:54:00.634Z,10.60
2023-05-12T00:56:29.185Z,10.70
2023-05-12T00:58:57.871Z,10.78
2023-05-12T01:01:25.745Z,10.72
2023-05-12T01:03:56.759Z,10.70
2023-05-12T01:06:53.936Z,10.70
2023-05-12T01:09:22.676Z,10.70
2023-05-12T01:11:51.324Z,10.70
2023-05-12T01:14:19.678Z,10.70
2023-05-12T01:17:13.729Z,10.70
2023-05-12T01:19:57.467Z,10.72
2023-05-12T01:22:29.036Z,10.78
2023-05-12T01:25:08.380Z,10.80
2023-05-12T01:27:40.544Z,10.78
2023-05-12T01:30:13.162Z,10.80
2023-05-12T01:32:42.115Z,10.80
2023-05-12T01:35:10.966Z,10.80
2023-05-12T01:37:38.863Z,10.80
2023-05-12T01:40:08.464Z,10.80
2023-05-12T01:42:40.839Z,10.80
2023-05-12T01:45:09.942Z,10.82
2023-05-12T01:47:37.929Z,10.90
2023-05-12T01:50:07.579Z,10.80
2023-05-12T01:52:36.923Z,10.80
2023-05-12T01:55:05.999Z,10.80
2023-05-12T01:57:33.899Z,10.80
2023-05-12T02:00:01.898Z,10.80
2023-05-12T02:02:31.756Z,10.80
2023-05-12T02:05:02.413Z,10.80
2023-05-12T02:07:30.510Z,10.80
2023-05-12T02:09:58.990Z,10.80
2023-05-12T02:12:30.389Z,10.80
2023-05-12T02:14:58.299Z,10.80
2023-05-12T02:17:26.272Z,10.88
2023-05-12T02:19:54.500Z,10.90
2023-05-12T02:22:22.604Z,10.86
2023-05-12T02:24:50.497Z,10.80
2023-05-12T02:27:18.396Z,10.80
2023-05-12T02:29:46.845Z,10.80
2023-05-12T02:32:14.763Z,10.80
2023-05-12T02:34:42.810Z,10.80
2023-05-12T02:37:11.064Z,10.80
2023-05-12T02:39:40.045Z,10.80
2023-05-12T02:42:08.002Z,10.80
2023-05-12T02:44:36.225Z,10.80
2023-05-12T02:47:04.751Z,10.80
2023-05-12T02:49:32.658Z,10.80
2023-05-12T02:52:00.529Z,10.80
2023-05-12T02:54:28.590Z,10.88
2023-05-12T02:56:58.450Z,10.90
2023-05-12T02:59:26.446Z,10.90
2023-05-12T03:01:55.006Z,10.80
2023-05-12T03:04:23.162Z,10.80
2023-05-12T03:06:51.302Z,10.80
2023-05-12T03:09:19.276Z,10.80
2023-05-12T03:11:47.847Z,10.70
2023-05-12T03:14:15.664Z,10.70
2023-05-12T03:16:43.665Z,10.60
2023-05-12T03:19:11.741Z,10.60
2023-05-12T03:21:41.979Z,10.60
2023-05-12T03:24:09.983Z,10.60
2023-05-12T03:26:39.219Z,10.60
2023-05-12T03:29:09.433Z,10.50
2023-05-12T03:31:38.208Z,10.48
2023-05-12T03:34:06.498Z,10.42
2023-05-12T03:36:37.504Z,10.40
2023-05-12T03:39:05.589Z,10.40
2023-05-12T03:41:33.698Z,10.40
2023-05-12T03:44:01.606Z,10.40
2023-05-12T03:46:29.458Z,10.40
2023-05-12T03:48:59.038Z,10.40
2023-05-12T03:51:28.283Z,10.40
2023-05-12T03:53:56.181Z,10.40
2023-05-12T03:56:24.938Z,10.40
2023-05-12T03:58:52.934Z,10.30
2023-05-12T04:01:21.095Z,10.32
2023-05-12T04:03:49.088Z,10.30
2023-05-12T04:06:19.033Z,10.30
2023-05-12T04:08:55.021Z,10.30
2023-05-12T04:11:23.807Z,10.36
2023-05-12T04:13:51.729Z,10.40
2023-05-12T04:16:20.323Z,10.40
2023-05-12T04:18:49.913Z,10.40
2023-05-12T04:21:18.025Z,10.44
2023-05-12T04:23:45.953Z,10.50
2023-05-12T04:26:13.808Z,10.50
2023-05-12T04:28:42.028Z,10.50
2023-05-12T04:31:10.033Z,10.58
2023-05-12T04:33:37.936Z,10.58
2023-05-12T04:36:06.276Z,10.60
2023-05-12T04:38:34.395Z,10.60
2023-05-12T04:41:03.533Z,10.70
2023-05-12T04:46:02.477Z,10.70
2023-05-12T04:48:30.476Z,10.70
2023-05-12T04:51:02.452Z,10.70
2023-05-12T04:53:34.727Z,10.80
2023-05-12T04:56:03.784Z,10.80
2023-05-12T04:58:31.820Z,10.80
2023-05-12T05:01:01.055Z,10.88
2023-05-12T05:03:29.119Z,10.90
2023-05-12T05:05:58.101Z,10.90
2023-05-12T05:08:25.982Z,10.90
2023-05-12T05:10:54.163Z,10.90
2023-05-12T05:13:22.417Z,10.90
2023-05-12T05:15:52.717Z,11.00
2023-05-12T05:18:24.074Z,11.00
2023-05-12T05:20:57.860Z,11.08
2023-05-12T05:23:30.191Z,11.10
2023-05-12T05:25:58.014Z,11.10
2023-05-12T05:28:26.804Z,11.20
2023-05-12T05:30:54.695Z,11.22
2023-05-12T05:33:22.882Z,11.30
2023-05-12T05:35:51.357Z,11.30
2023-05-12T05:38:19.395Z,11.40
2023-05-12T05:40:53.803Z,11.48
2023-05-12T05:43:22.507Z,11.50
2023-05-12T05:45:51.607Z,11.60
2023-05-12T05:48:19.913Z,11.70
2023-05-12T05:50:48.919Z,11.70
2023-05-12T05:53:19.527Z,11.80
2023-05-12T05:55:51.925Z,11.86
2023-05-12T05:58:19.781Z,11.90
2023-05-12T06:00:47.744Z,12.00
2023-05-12T06:03:15.857Z,12.02
2023-05-12T06:05:44.449Z,12.10
2023-05-12T06:08:13.697Z,12.20
2023-05-12T06:10:42.219Z,12.30
2023-05-12T06:13:10.827Z,12.38
2023-05-12T06:15:38.782Z,12.44
2023-05-12T06:18:06.979Z,12.60
2023-05-12T06:20:38.459Z,12.62
2023-05-12T06:23:09.656Z,12.70
2023-05-12T06:25:41.705Z,12.80
2023-05-12T06:28:09.548Z,12.88
2023-05-12T06:30:37.523Z,12.90
2023-05-12T06:33:05.874Z,13.00
2023-05-12T06:35:34.017Z,13.00
2023-05-12T06:38:06.481Z,13.08
2023-05-12T06:40:34.664Z,13.10
2023-05-12T06:43:03.217Z,13.14
2023-05-12T06:45:31.115Z,13.20
2023-05-12T06:47:59.088Z,13.20
2023-05-12T06:50:27.412Z,13.30
2023-05-12T06:52:55.268Z,13.40
2023-05-12T06:55:25.315Z,13.40
2023-05-12T06:57:56.057Z,13.50
2023-05-12T07:00:25.994Z,13.50
2023-05-12T07:02:54.541Z,13.60
2023-05-12T07:05:22.906Z,13.70
2023-05-12T07:07:51.450Z,13.70
2023-05-12T07:10:21.158Z,13.80
2023-05-12T07:12:49.134Z,13.90
2023-05-12T07:15:20.123Z,14.00
2023-05-12T07:17:48.560Z,14.10
2023-05-12T07:20:16.969Z,14.14
2023-05-12T07:22:45.396Z,14.20
2023-05-12T07:25:13.605Z,14.30
2023-05-12T07:27:41.879Z,14.40
2023-05-12T07:30:11.395Z,14.42
2023-05-12T07:32:39.270Z,14.50
2023-05-12T07:35:08.130Z,14.60
2023-05-12T07:37:36.140Z,14.60
2023-05-12T07:40:04.998Z,14.70
2023-05-12T07:42:33.054Z,14.80
2023-05-12T07:45:01.030Z,14.80
2023-05-12T07:47:29.046Z,14.90
2023-05-12T07:49:57.095Z,15.00
2023-05-12T07:52:25.574Z,15.00
2023-05-12T07:54:53.537Z,15.00
2023-05-12T07:57:21.584Z,15.00
2023-05-12T07:59:51.028Z,15.08
2023-05-12T08:02:20.764Z,15.10
2023-05-12T08:04:52.036Z,15.20
2023-05-12T08:07:20.136Z,15.28
2023-05-12T08:09:48.862Z,15.30
2023-05-12T08:12:16.659Z,15.34
2023-05-12T08:14:47.227Z,15.40
2023-05-12T08:17:17.298Z,15.50
2023-05-12T08:19:45.303Z,15.50
2023-05-12T08:22:13.595Z,15.60
2023-05-12T08:24:43.137Z,15.70
2023-05-12T08:27:13.958Z,15.80
2023-05-12T08:29:41.849Z,15.90
2023-05-12T08:32:15.091Z,15.90
2023-05-12T08:34:43.134Z,16.00
2023-05-12T08:37:12.633Z,16.10
2023-05-12T08:39:41.772Z,16.20
2023-05-12T08:42:25.706Z,16.20
2023-05-12T08:44:54.703Z,16.30
2023-05-12T08:47:26.721Z,16.30
2023-05-12T08:50:03.531Z,16.40
2023-05-12T08:52:36.611Z,16.52
2023-05-12T08:55:05.524Z,16.64
2023-05-12T08:57:34.617Z,16.78
2023-05-12T09:00:05.155Z,16.80
2023-05-12T09:02:48.323Z,16.86
2023-05-12T09:05:20.949Z,16.90
2023-05-12T09:07:50.554Z,16.96
2023-05-12T09:10:34.497Z,16.90
2023-05-12T09:13:12.569Z,17.00
2023-05-12T09:15:46.061Z,17.10
2023-05-12T09:18:14.936Z,17.14
2023-05-12T09:20:43.277Z,17.20
2023-05-12T09:23:24.886Z,17.30
2023-05-12T09:26:01.621Z,17.40
2023-05-12T09:28:39.101Z,17.58
2023-05-12T09:31:24.935Z,17.70
2023-05-12T09:33:53.165Z,17.90
2023-05-12T09:36:26.236Z,18.10
2023-05-12T09:39:10.490Z,18.30
2023-05-12T09:41:41.005Z,18.40
2023-05-12T09:44:13.467Z,18.46
2023-05-12T09:46:41.399Z,18.50
2023-05-12T09:49:09.223Z,18.52
2023-05-12T09:51:37.898Z,18.64
2023-05-12T09:54:09.408Z,18.74
2023-05-12T09:56:38.563Z,18.90
2023-05-12T09:59:11.308Z,19.08
2023-05-12T10:01:39.607Z,19.20
2023-05-12T10:04:09.304Z,19.30
2023-05-12T10:06:43.423Z,19.30
2023-05-12T10:09:26.185Z,19.20
2023-05-12T10:11:54.603Z,19.20
2023-05-12T10:14:25.731Z,19.20
2023-05-12T10:16:55.175Z,19.24
2023-05-12T10:19:25.866Z,19.20
2023-05-12T10:21:59.650Z,19.20
2023-05-12T10:24:28.434Z,19.24
2023-05-12T10:26:57.883Z,19.30
2023-05-12T10:29:30.563Z,19.30
2023-05-12T10:32:03.691Z,19.30
2023-05-12T10:34:37.897Z,19.38
2023-05-12T10:37:11.391Z,19.34
2023-05-12T10:39:52.696Z,19.40
2023-05-12T10:42:26.521Z,19.50
2023-05-12T10:44:56.513Z,19.60
2023-05-12T10:47:29.491Z,19.70
2023-05-12T10:49:59.810Z,19.80
2023-05-12T10:52:27.772Z,19.90
2023-05-12T10:55:39.275Z,20.00
2023-05-12T10:57:53.329Z,20.10
2023-05-12T11:00:27.010Z,20.20
2023-05-12T11:02:59.280Z,20.30
2023-05-12T11:05:35.237Z,20.40
2023-05-12T11:08:04.674Z,20.50
2023-05-12T11:10:35.795Z,20.40
2023-05-12T11:13:04.765Z,20.30
2023-05-12T11:15:32.612Z,20.24
2023-05-12T11:18:05.343Z,20.22
2023-05-12T11:20:34.827Z,20.20
2023-05-12T11:23:03.866Z,20.12
2023-05-12T11:25:33.397Z,20.20
2023-05-12T11:28:03.585Z,20.20
2023-05-12T11:30:31.600Z,20.24
2023-05-12T11:33:03.889Z,20.36
2023-05-12T11:35:32.604Z,20.50
2023-05-12T11:38:02.935Z,20.52
2023-05-12T11:40:31.429Z,20.64
2023-05-12T11:43:11.194Z,20.70
2023-05-12T11:45:39.002Z,20.60
2023-05-12T11:48:14.311Z,20.60
2023-05-12T11:50:46.800Z,20.70
2023-05-12T11:53:18.690Z,20.70
2023-05-12T11:55:56.574Z,20.76
2023-05-12T11:58:31.659Z,20.80
2023-05-12T12:01:12.297Z,20.90
2023-05-12T12:03:49.889Z,21.00
2023-05-12T12:06:20.139Z,21.10
2023-05-12T12:08:52.526Z,21.04
2023-05-12T12:11:26.869Z,21.16
2023-05-12T12:13:57.128Z,21.30
2023-05-12T12:16:27.652Z,21.34
2023-05-12T12:18:57.140Z,21.40
2023-05-12T12:21:26.791Z,21.50
2023-05-12T12:23:54.790Z,21.62
2023-05-12T12:26:23.578Z,21.80
2023-05-12T12:28:53.765Z,22.04
2023-05-12T12:31:22.668Z,22.30
2023-05-12T12:33:50.851Z,22.58
2023-05-12T12:36:18.673Z,22.72
2023-05-12T12:38:47.786Z,22.86
2023-05-12T12:41:16.761Z,22.90
2023-05-12T12:43:44.745Z,23.10
2023-05-12T12:46:12.914Z,23.20
2023-05-12T12:48:41.383Z,23.20
2023-05-12T12:51:10.383Z,23.28
2023-05-12T12:53:38.593Z,23.50
2023-05-12T12:56:07.104Z,23.50
2023-05-12T12:58:35.573Z,23.30
2023-05-12T13:01:06.033Z,23.20
2023-05-12T13:03:34.105Z,22.90
2023-05-12T13:06:03.587Z,22.70
2023-05-12T13:08:31.458Z,22.72
2023-05-12T13:11:01.314Z,22.90
2023-05-12T13:13:29.267Z,23.00
2023-05-12T13:15:57.085Z,22.90
2023-05-12T13:18:25.203Z,22.74
2023-05-12T13:20:54.253Z,22.88
2023-05-12T13:23:22.158Z,23.00
2023-05-12T13:25:52.129Z,23.06
2023-05-12T13:28:22.449Z,23.20
2023-05-12T13:30:54.233Z,23.40
2023-05-12T13:33:22.335Z,23.50
2023-05-12T13:35:50.220Z,23.40
2023-05-12T13:38:18.326Z,23.30
2023-05-12T13:40:46.285Z,23.10
2023-05-12T13:43:14.731Z,23.00
2023-05-12T13:45:42.940Z,22.90
2023-05-12T13:48:11.058Z,22.80
2023-05-12T13:50:38.929Z,22.66
2023-05-12T13:53:06.856Z,22.60
2023-05-12T13:55:40.574Z,22.50
2023-05-12T13:58:09.155Z,22.40
2023-05-12T14:00:37.767Z,22.30
2023-05-12T14:03:06.044Z,22.30
2023-05-12T14:05:34.160Z,22.30
2023-05-12T14:08:02.653Z,22.28
2023-05-12T14:10:32.681Z,22.22
2023-05-12T14:13:01.709Z,22.20
2023-05-12T14:15:40.634Z,22.20
2023-05-12T14:18:15.768Z,22.20
2023-05-12T14:20:43.791Z,22.10
2023-05-12T14:23:11.704Z,22.10
2023-05-12T14:25:39.906Z,22.10
2023-05-12T14:28:07.925Z,22.00
2023-05-12T14:30:37.259Z,21.90
2023-05-12T14:33:05.358Z,21.90
2023-05-12T14:35:33.400Z,22.10
2023-05-12T14:38:01.193Z,22.24
2023-05-12T14:40:31.813Z,22.36
2023-05-12T14:43:00.201Z,22.50
2023-05-12T14:45:29.419Z,22.50
2023-05-12T14:47:57.622Z,22.50
2023-05-12T14:50:25.764Z,22.40
2023-05-12T14:52:53.658Z,22.40
2023-05-12T14:55:22.511Z,22.30
2023-05-12T14:57:51.352Z,22.30
2023-05-12T15:00:21.574Z,22.20
2023-05-12T15:02:49.715Z,22.14
2023-05-12T15:05:17.926Z,22.10
2023-05-12T15:07:46.505Z,22.10
2023-05-12T15:10:14.390Z,22.00
2023-05-12T15:12:42.172Z,21.98
2023-05-12T15:15:11.799Z,21.80
2023-05-12T15:17:40.554Z,21.76
2023-05-12T15:20:09.944Z,21.66
2023-05-12T15:22:39.807Z,21.50
2023-05-12T15:25:08.843Z,21.40
2023-05-12T15:27:36.655Z,21.40
2023-05-12T15:30:06.057Z,21.38
2023-05-12T15:32:34.144Z,21.30
2023-05-12T15:35:01.912Z,21.30
2023-05-12T15:37:29.989Z,21.30
2023-05-12T15:39:57.882Z,21.26
2023-05-12T15:42:30.034Z,21.10
2023-05-12T15:45:01.139Z,20.90
2023-05-12T15:47:29.119Z,20.70
2023-05-12T15:49:56.950Z,20.60
2023-05-12T15:52:25.354Z,20.50
2023-05-12T15:54:53.709Z,20.40
2023-05-12T15:57:21.628Z,20.30
2023-05-12T15:59:50.261Z,20.20
2023-05-12T16:02:19.507Z,20.18
2023-05-12T16:04:48.559Z,20.10
2023-05-12T16:07:17.282Z,20.00
2023-05-12T16:09:45.060Z,20.00
2023-05-12T16:12:13.102Z,20.00
2023-05-12T16:14:42.730Z,19.90
2023-05-12T16:17:10.735Z,19.78
2023-05-12T16:19:38.725Z,19.76
2023-05-12T16:22:06.844Z,19.80
2023-05-12T16:24:35.054Z,19.98
2023-05-12T16:27:03.108Z,20.20
2023-05-12T16:29:31.459Z,20.20
2023-05-12T16:31:59.313Z,20.20
2023-05-12T16:34:29.336Z,20.30
2023-05-12T16:36:57.164Z,20.20
2023-05-12T16:39:27.359Z,20.20
2023-05-12T16:41:56.009Z,20.10
2023-05-12T16:44:23.844Z,20.10
2023-05-12T16:46:52.944Z,20.08
2023-05-12T16:49:20.723Z,20.06
2023-05-12T16:51:48.767Z,20.02
2023-05-12T16:54:18.106Z,20.10
2023-05-12T16:56:47.391Z,20.10
2023-05-12T16:59:15.609Z,20.20
2023-05-12T17:01:43.539Z,20.10
2023-05-12T17:04:15.634Z,20.00
2023-05-12T17:06:44.839Z,19.90
2023-05-12T17:09:15.046Z,19.80
2023-05-12T17:11:42.975Z,19.70
2023-05-12T17:14:11.082Z,19.68
2023-05-12T17:16:40.270Z,19.60
2023-05-12T17:21:40.234Z,19.64
2023-05-12T17:24:09.254Z,19.70
2023-05-12T17:26:37.919Z,19.70
2023-05-12T17:29:06.199Z,19.70
2023-05-12T17:31:34.242Z,19.60
2023-05-12T17:34:03.301Z,19.50
2023-05-12T17:36:31.400Z,19.40
2023-05-12T17:38:59.258Z,19.30
2023-05-12T17:41:29.048Z,19.20
2023-05-12T17:43:57.359Z,19.12
2023-05-12T17:46:25.630Z,19.10
2023-05-12T17:48:53.606Z,19.10
2023-05-12T17:51:21.602Z,19.00
2023-05-12T17:53:49.913Z,19.00
2023-05-12T17:56:19.772Z,18.90
2023-05-12T17:58:52.940Z,18.90
2023-05-12T18:01:21.133Z,18.80
2023-05-12T18:03:49.353Z,18.70
2023-05-12T18:06:18.597Z,18.70
2023-05-12T18:08:46.751Z,18.70
2023-05-12T18:11:15.545Z,18.70
2023-05-12T18:13:43.791Z,18.66
2023-05-12T18:16:21.682Z,18.70
2023-05-12T18:18:56.620Z,18.70
2023-05-12T18:21:25.957Z,18.66
2023-05-12T18:23:54.029Z,18.60
2023-05-12T18:26:22.573Z,18.50
2023-05-12T18:28:50.759Z,18.50
2023-05-12T18:31:20.056Z,18.50
2023-05-12T18:33:49.987Z,18.40
2023-05-12T18:36:18.027Z,18.40
2023-05-12T18:38:46.667Z,18.40
2023-05-12T18:41:14.690Z,18.30
2023-05-12T18:43:44.177Z,18.30
2023-05-12T18:46:13.038Z,18.20
2023-05-12T18:48:41.308Z,18.20
2023-05-12T18:51:09.759Z,18.20
2023-05-12T18:53:37.678Z,18.18
2023-05-12T18:56:06.365Z,18.10
2023-05-12T18:58:34.158Z,18.02
2023-05-12T19:01:14.813Z,18.00
2023-05-12T19:03:45.527Z,18.00
2023-05-12T19:06:14.273Z,17.90
2023-05-12T19:08:42.579Z,17.90
2023-05-12T19:11:11.245Z,17.80
2023-05-12T19:13:42.906Z,17.80
2023-05-12T19:16:11.784Z,17.78
2023-05-12T19:18:39.906Z,17.60
2023-05-12T19:21:08.635Z,17.50
2023-05-12T19:23:37.221Z,17.40
2023-05-12T19:26:07.372Z,17.38
2023-05-12T19:28:38.087Z,17.30
2023-05-12T19:31:06.113Z,17.30
2023-05-12T19:33:36.080Z,17.30
2023-05-12T19:36:04.890Z,17.22
2023-05-12T19:38:32.753Z,17.20
2023-05-12T19:41:00.958Z,17.20
2023-05-12T19:43:29.797Z,17.10
2023-05-12T19:45:57.859Z,17.00
2023-05-12T19:48:28.416Z,16.90
2023-05-12T19:50:56.356Z,16.86
2023-05-12T19:53:24.327Z,16.80
2023-05-12T19:55:53.877Z,16.80
2023-05-12T19:58:22.003Z,16.70
2023-05-12T20:00:50.054Z,16.70
2023-05-12T20:03:19.319Z,16.70
2023-05-12T20:05:48.553Z,16.70
2023-05-12T20:08:16.733Z,16.70
2023-05-12T20:10:44.560Z,16.70
2023-05-12T20:13:12.362Z,16.74
2023-05-12T20:15:41.041Z,16.70
2023-05-12T20:18:11.260Z,16.70
2023-05-12T20:20:39.514Z,16.60
2023-05-12T20:23:08.127Z,16.56
2023-05-12T20:25:36.894Z,16.50
2023-05-12T20:28:05.235Z,16.40
2023-05-12T20:30:35.194Z,16.30
2023-05-12T20:33:04.355Z,16.30
2023-05-12T20:35:32.518Z,16.20
2023-05-12T20:38:01.172Z,16.10
2023-05-12T20:40:29.106Z,16.10
2023-05-12T20:42:58.078Z,16.10
2023-05-12T20:45:26.173Z,16.00
2023-05-12T20:47:54.047Z,16.00
2023-05-12T20:50:24.109Z,16.06
2023-05-12T20:52:52.966Z,16.10
2023-05-12T20:55:21.444Z,16.00
2023-05-12T20:57:52.397Z,15.90
2023-05-12T21:00:21.832Z,15.80
2023-05-12T21:02:52.675Z,15.70
2023-05-12T21:05:21.267Z,15.60
2023-05-12T21:07:49.362Z,15.60
2023-05-12T21:10:17.443Z,15.60
2023-05-12T21:12:45.329Z,15.60
2023-05-12T21:15:13.800Z,15.50
2023-05-12T21:17:42.453Z,15.50
2023-05-12T21:20:12.486Z,15.50
2023-05-12T21:22:43.085Z,15.46
2023-05-12T21:25:11.476Z,15.40
2023-05-12T21:27:41.188Z,15.40
2023-05-12T21:30:12.019Z,15.50
2023-05-12T21:32:39.980Z,15.40
2023-05-12T21:35:09.900Z,15.30
2023-05-12T21:37:38.046Z,15.30
2023-05-12T21:40:07.194Z,15.30
2023-05-12T21:42:35.110Z,15.20
2023-05-12T21:45:03.119Z,15.20
2023-05-12T21:47:30.997Z,15.20
2023-05-12T21:49:59.503Z,15.20
2023-05-12T21:52:28.058Z,15.20
2023-05-12T21:54:56.508Z,15.10
2023-05-12T21:57:24.897Z,15.00
2023-05-12T21:59:53.180Z,15.00
2023-05-12T22:02:22.738Z,15.00
2023-05-12T22:04:50.746Z,15.00
2023-05-12T22:07:18.972Z,15.00
2023-05-12T22:09:46.763Z,15.00
2023-05-12T22:12:18.330Z,14.90
2023-05-12T22:14:46.144Z,14.90
2023-05-12T22:17:14.273Z,14.90
2023-05-12T22:19:42.346Z,14.90
2023-05-12T22:22:11.288Z,15.00
2023-05-12T22:24:39.413Z,15.00
2023-05-12T22:27:07.795Z,14.90
2023-05-12T22:29:35.713Z,14.90
2023-05-12T22:32:04.116Z,15.00
2023-05-12T22:34:32.275Z,14.96
2023-05-12T22:37:01.636Z,14.90
2023-05-12T22:39:29.483Z,14.80
2023-05-12T22:41:57.783Z,14.70
2023-05-12T22:44:26.668Z,14.70
2023-05-12T22:46:54.742Z,14.70
2023-05-12T22:49:22.741Z,14.62
2023-05-12T22:51:50.535Z,14.60
2023-05-12T22:54:18.686Z,14.60
2023-05-12T22:56:46.590Z,14.60
2023-05-12T22:59:15.581Z,14.60
2023-05-12T23:01:43.961Z,14.70
2023-05-12T23:04:11.959Z,14.70
2023-05-12T23:06:39.847Z,14.70
2023-05-12T23:09:07.816Z,14.70
2023-05-12T23:11:35.679Z,14.64
2023-05-12T23:14:03.483Z,14.60
2023-05-12T23:16:31.298Z,14.60
2023-05-12T23:18:59.274Z,14.50
2023-05-12T23:21:29.771Z,14.42
2023-05-12T23:23:57.580Z,14.40
2023-05-12T23:26:25.593Z,14.40
2023-05-12T23:28:53.513Z,14.40
2023-05-12T23:31:21.587Z,14.30
2023-05-12T23:33:50.048Z,14.12
2023-05-12T23:36:20.453Z,14.04
2023-05-12T23:38:53.685Z,13.96
2023-05-12T23:41:25.804Z,13.90
2023-05-12T23:43:54.237Z,13.90
2023-05-12T23:46:22.034Z,14.00
2023-05-12T23:48:49.990Z,14.00
2023-05-12T23:51:17.908Z,14.00
2023-05-12T23:53:45.719Z,14.00
2023-05-12T23:56:13.750Z,14.00
2023-05-12T23:58:42.097Z,13.90
